sensor_id;sensor_type;location;lat;lon;timestamp;temperature;humidity
51902;DHT22;37929;53.218;6.548;2023-03-20T00:01:36;7.70;99.90
51902;DHT22;37929;53.218;6.548;2023-03-20T00:04:02;7.70;99.90
51902;DHT22;37929;53.218;6.548;2023-03-20T00:06:28;7.60;99.90
51902;DHT22;37929;53.218;6.548;2023-03-20T00:08:54;7.60;99.90
51902;DHT22;37929;53.218;6.548;2023-03-20T00:13:56;7.60;99.90
51902;DHT22;37929;53.218;6.548;2023-03-20T00:16:25;7.50;99.90
51902;DHT22;37929;53.218;6.548;2023-03-20T00:18:51;7.50;99.90
51902;DHT22;37929;53.218;6.548;2023-03-20T00:21:18;7.50;99.90
51902;DHT22;37929;53.218;6.548;2023-03-20T00:23:44;7.50;99.90
51902;DHT22;37929;53.218;6.548;2023-03-20T00:26:15;7.50;99.90
51902;DHT22;37929;53.218;6.548;2023-03-20T00:28:49;7.50;99.90
51902;DHT22;37929;53.218;6.548;2023-03-20T00:31:21;7.50;99.90
51902;DHT22;37929;53.218;6.548;2023-03-20T00:33:49;7.40;99.90
51902;DHT22;37929;53.218;6.548;2023-03-20T00:36:15;7.40;99.90
51902;DHT22;37929;53.218;6.548;2023-03-20T00:38:41;7.50;99.90
51902;DHT22;37929;53.218;6.548;2023-03-20T00:41:47;7.50;99.90
51902;DHT22;37929;53.218;6.548;2023-03-20T00:46:54;7.50;99.90
51902;DHT22;37929;53.218;6.548;2023-03-20T00:49:32;7.50;99.90
51902;DHT22;37929;53.218;6.548;2023-03-20T00:52:00;7.50;99.90
51902;DHT22;37929;53.218;6.548;2023-03-20T00:54:26;7.50;99.90
51902;DHT22;37929;53.218;6.548;2023-03-20T00:57:21;7.50;99.90
51902;DHT22;37929;53.218;6.548;2023-03-20T00:59:58;7.40;99.90
51902;DHT22;37929;53.218;6.548;2023-03-20T01:02:28;7.40;99.90
51902;DHT22;37929;53.218;6.548;2023-03-20T01:04:55;7.40;99.90
51902;DHT22;37929;53.218;6.548;2023-03-20T01:07:21;7.40;99.90
51902;DHT22;37929;53.218;6.548;2023-03-20T01:09:47;7.40;99.90
51902;DHT22;37929;53.218;6.548;2023-03-20T01:12:14;7.40;99.90
51902;DHT22;37929;53.218;6.548;2023-03-20T01:14:41;7.40;99.90
51902;DHT22;37929;53.218;6.548;2023-03-20T01:17:18;7.40;99.90
51902;DHT22;37929;53.218;6.548;2023-03-20T01:19:45;7.40;99.90
51902;DHT22;37929;53.218;6.548;2023-03-20T01:22:10;7.40;99.90
51902;DHT22;37929;53.218;6.548;2023-03-20T01:24:39;7.40;99.90
51902;DHT22;37929;53.218;6.548;2023-03-20T01:27:12;7.50;99.90
51902;DHT22;37929;53.218;6.548;2023-03-20T01:29:38;7.40;99.90
51902;DHT22;37929;53.218;6.548;2023-03-20T01:32:10;7.40;99.90
51902;DHT22;37929;53.218;6.548;2023-03-20T01:34:38;7.40;99.90
51902;DHT22;37929;53.218;6.548;2023-03-20T01:37:10;7.40;99.90
51902;DHT22;37929;53.218;6.548;2023-03-20T01:39:37;7.40;99.90
51902;DHT22;37929;53.218;6.548;2023-03-20T01:42:04;7.40;99.90
51902;DHT22;37929;53.218;6.548;2023-03-20T01:44:33;7.40;99.90
51902;DHT22;37929;53.218;6.548;2023-03-20T01:47:01;7.30;99.90
51902;DHT22;37929;53.218;6.548;2023-03-20T01:51:53;7.30;99.90
51902;DHT22;37929;53.218;6.548;2023-03-20T01:54:33;7.30;99.90
51902;DHT22;37929;53.218;6.548;2023-03-20T01:57:19;7.30;99.90
51902;DHT22;37929;53.218;6.548;2023-03-20T02:02:15;7.30;99.90
51902;DHT22;37929;53.218;6.548;2023-03-20T02:04:45;7.30;99.90
51902;DHT22;37929;53.218;6.548;2023-03-20T02:07:14;7.30;99.90
51902;DHT22;37929;53.218;6.548;2023-03-20T02:09:41;7.30;99.90
51902;DHT22;37929;53.218;6.548;2023-03-20T02:12:07;7.70;99.90
51902;DHT22;37929;53.218;6.548;2023-03-20T02:14:33;7.30;99.90
51902;DHT22;37929;53.218;6.548;2023-03-20T02:17:09;7.30;99.90
51902;DHT22;37929;53.218;6.548;2023-03-20T02:28:53;7.30;99.90
51902;DHT22;37929;53.218;6.548;2023-03-20T02:45:14;7.40;99.90
51902;DHT22;37929;53.218;6.548;2023-03-20T02:50:34;7.40;99.90
51902;DHT22;37929;53.218;6.548;2023-03-20T02:55:53;7.40;99.90
51902;DHT22;37929;53.218;6.548;2023-03-20T03:00:56;7.50;99.90
51902;DHT22;37929;53.218;6.548;2023-03-20T03:03:36;7.50;99.90
51902;DHT22;37929;53.218;6.548;2023-03-20T03:08:38;7.50;99.90
51902;DHT22;37929;53.218;6.548;2023-03-20T03:11:07;7.50;99.90
51902;DHT22;37929;53.218;6.548;2023-03-20T03:13:41;7.50;99.90
51902;DHT22;37929;53.218;6.548;2023-03-20T03:16:15;7.50;99.90
51902;DHT22;37929;53.218;6.548;2023-03-20T03:18:43;7.50;99.90
51902;DHT22;37929;53.218;6.548;2023-03-20T03:21:12;7.70;99.90
51902;DHT22;37929;53.218;6.548;2023-03-20T03:23:43;7.50;99.90
51902;DHT22;37929;53.218;6.548;2023-03-20T03:26:24;7.50;99.90
51902;DHT22;37929;53.218;6.548;2023-03-20T03:28:55;7.50;99.90
51902;DHT22;37929;53.218;6.548;2023-03-20T03:31:23;7.50;99.90
51902;DHT22;37929;53.218;6.548;2023-03-20T03:33:52;7.80;99.90
51902;DHT22;37929;53.218;6.548;2023-03-20T03:46:55;7.60;99.90
51902;DHT22;37929;53.218;6.548;2023-03-20T03:49:29;7.60;99.90
51902;DHT22;37929;53.218;6.548;2023-03-20T03:52:01;7.60;99.90
51902;DHT22;37929;53.218;6.548;2023-03-20T03:54:34;7.40;99.90
51902;DHT22;37929;53.218;6.548;2023-03-20T03:57:01;7.60;99.90
51902;DHT22;37929;53.218;6.548;2023-03-20T03:59:42;7.60;99.90
51902;DHT22;37929;53.218;6.548;2023-03-20T04:02:09;7.90;99.90
51902;DHT22;37929;53.218;6.548;2023-03-20T04:04:41;7.60;99.90
51902;DHT22;37929;53.218;6.548;2023-03-20T04:07:07;7.60;99.90
51902;DHT22;37929;53.218;6.548;2023-03-20T04:09:33;7.60;99.90
51902;DHT22;37929;53.218;6.548;2023-03-20T04:11:59;7.70;99.90
51902;DHT22;37929;53.218;6.548;2023-03-20T04:14:25;7.60;99.90
51902;DHT22;37929;53.218;6.548;2023-03-20T04:16:51;7.70;99.90
51902;DHT22;37929;53.218;6.548;2023-03-20T04:19:17;7.70;99.90
51902;DHT22;37929;53.218;6.548;2023-03-20T04:21:46;7.70;99.90
51902;DHT22;37929;53.218;6.548;2023-03-20T04:24:12;7.70;99.90
51902;DHT22;37929;53.218;6.548;2023-03-20T04:26:38;7.70;99.90
51902;DHT22;37929;53.218;6.548;2023-03-20T04:29:04;7.70;99.90
51902;DHT22;37929;53.218;6.548;2023-03-20T04:31:30;7.70;99.90
51902;DHT22;37929;53.218;6.548;2023-03-20T04:33:57;7.70;99.90
51902;DHT22;37929;53.218;6.548;2023-03-20T04:36:22;7.70;99.90
51902;DHT22;37929;53.218;6.548;2023-03-20T04:38:49;7.80;99.90
51902;DHT22;37929;53.218;6.548;2023-03-20T04:41:15;7.70;99.90
51902;DHT22;37929;53.218;6.548;2023-03-20T04:43:41;7.80;99.90
51902;DHT22;37929;53.218;6.548;2023-03-20T04:46:06;7.70;99.90
51902;DHT22;37929;53.218;6.548;2023-03-20T04:48:32;8.00;99.90
51902;DHT22;37929;53.218;6.548;2023-03-20T04:50:58;7.80;99.90
51902;DHT22;37929;53.218;6.548;2023-03-20T04:53:24;7.80;99.90
51902;DHT22;37929;53.218;6.548;2023-03-20T04:55:50;7.80;99.90
51902;DHT22;37929;53.218;6.548;2023-03-20T04:58:15;7.80;99.90
51902;DHT22;37929;53.218;6.548;2023-03-20T05:00:42;7.80;99.90
51902;DHT22;37929;53.218;6.548;2023-03-20T05:03:08;7.80;99.90
51902;DHT22;37929;53.218;6.548;2023-03-20T05:05:34;7.80;99.90
51902;DHT22;37929;53.218;6.548;2023-03-20T05:08:04;7.80;99.90
51902;DHT22;37929;53.218;6.548;2023-03-20T05:10:31;7.80;99.90
51902;DHT22;37929;53.218;6.548;2023-03-20T05:12:56;7.80;99.90
51902;DHT22;37929;53.218;6.548;2023-03-20T05:15:22;7.80;99.90
51902;DHT22;37929;53.218;6.548;2023-03-20T05:17:48;8.30;99.90
51902;DHT22;37929;53.218;6.548;2023-03-20T05:20:14;7.80;99.90
51902;DHT22;37929;53.218;6.548;2023-03-20T05:22:40;7.80;99.90
51902;DHT22;37929;53.218;6.548;2023-03-20T05:25:06;7.80;99.90
51902;DHT22;37929;53.218;6.548;2023-03-20T05:27:32;7.80;99.90
51902;DHT22;37929;53.218;6.548;2023-03-20T05:29:58;7.80;99.90
51902;DHT22;37929;53.218;6.548;2023-03-20T05:32:24;7.80;99.90
51902;DHT22;37929;53.218;6.548;2023-03-20T05:34:50;8.20;99.90
51902;DHT22;37929;53.218;6.548;2023-03-20T05:37:16;7.80;99.90
51902;DHT22;37929;53.218;6.548;2023-03-20T05:39:41;7.80;99.90
51902;DHT22;37929;53.218;6.548;2023-03-20T05:42:07;7.80;99.90
51902;DHT22;37929;53.218;6.548;2023-03-20T05:44:33;7.80;99.90
51902;DHT22;37929;53.218;6.548;2023-03-20T05:46:59;7.80;99.90
51902;DHT22;37929;53.218;6.548;2023-03-20T05:49:25;7.80;99.90
51902;DHT22;37929;53.218;6.548;2023-03-20T05:51:51;7.80;99.90
51902;DHT22;37929;53.218;6.548;2023-03-20T05:54:17;7.80;99.90
51902;DHT22;37929;53.218;6.548;2023-03-20T05:56:43;7.80;99.90
51902;DHT22;37929;53.218;6.548;2023-03-20T05:59:10;7.80;99.90
51902;DHT22;37929;53.218;6.548;2023-03-20T06:01:36;7.80;99.90
51902;DHT22;37929;53.218;6.548;2023-03-20T06:04:02;8.30;99.90
51902;DHT22;37929;53.218;6.548;2023-03-20T06:06:28;7.70;99.90
51902;DHT22;37929;53.218;6.548;2023-03-20T06:08:54;7.70;99.90
51902;DHT22;37929;53.218;6.548;2023-03-20T06:11:19;7.70;99.90
51902;DHT22;37929;53.218;6.548;2023-03-20T06:13:45;7.70;99.90
51902;DHT22;37929;53.218;6.548;2023-03-20T06:16:11;7.70;99.90
51902;DHT22;37929;53.218;6.548;2023-03-20T06:18:37;7.70;99.90
51902;DHT22;37929;53.218;6.548;2023-03-20T06:21:03;7.70;99.90
51902;DHT22;37929;53.218;6.548;2023-03-20T06:23:30;7.70;99.90
51902;DHT22;37929;53.218;6.548;2023-03-20T06:25:56;7.70;99.90
51902;DHT22;37929;53.218;6.548;2023-03-20T06:28:22;7.80;99.90
51902;DHT22;37929;53.218;6.548;2023-03-20T06:30:50;7.80;99.90
51902;DHT22;37929;53.218;6.548;2023-03-20T06:33:17;7.70;99.90
51902;DHT22;37929;53.218;6.548;2023-03-20T06:35:45;7.80;99.90
51902;DHT22;37929;53.218;6.548;2023-03-20T06:38:11;7.80;99.90
51902;DHT22;37929;53.218;6.548;2023-03-20T06:40:37;7.00;99.90
51902;DHT22;37929;53.218;6.548;2023-03-20T06:43:03;7.80;99.90
51902;DHT22;37929;53.218;6.548;2023-03-20T06:45:29;7.80;99.90
51902;DHT22;37929;53.218;6.548;2023-03-20T06:47:55;7.80;99.90
51902;DHT22;37929;53.218;6.548;2023-03-20T06:50:23;7.80;99.90
51902;DHT22;37929;53.218;6.548;2023-03-20T06:52:49;7.80;99.90
51902;DHT22;37929;53.218;6.548;2023-03-20T06:55:15;7.80;99.90
51902;DHT22;37929;53.218;6.548;2023-03-20T06:57:40;7.80;99.90
51902;DHT22;37929;53.218;6.548;2023-03-20T07:00:07;7.80;99.90
51902;DHT22;37929;53.218;6.548;2023-03-20T07:02:33;7.90;99.90
51902;DHT22;37929;53.218;6.548;2023-03-20T07:04:59;7.90;99.90
51902;DHT22;37929;53.218;6.548;2023-03-20T07:07:25;7.90;99.90
51902;DHT22;37929;53.218;6.548;2023-03-20T07:09:51;7.90;99.90
51902;DHT22;37929;53.218;6.548;2023-03-20T07:12:17;8.20;99.90
51902;DHT22;37929;53.218;6.548;2023-03-20T07:14:45;7.90;99.90
51902;DHT22;37929;53.218;6.548;2023-03-20T07:17:13;8.00;99.90
51902;DHT22;37929;53.218;6.548;2023-03-20T07:19:39;8.30;99.90
51902;DHT22;37929;53.218;6.548;2023-03-20T07:22:07;8.00;99.90
51902;DHT22;37929;53.218;6.548;2023-03-20T07:24:37;8.00;99.90
51902;DHT22;37929;53.218;6.548;2023-03-20T07:27:03;8.20;99.90
51902;DHT22;37929;53.218;6.548;2023-03-20T07:29:28;8.10;99.90
51902;DHT22;37929;53.218;6.548;2023-03-20T07:31:54;8.10;99.90
51902;DHT22;37929;53.218;6.548;2023-03-20T07:34:21;8.20;99.90
51902;DHT22;37929;53.218;6.548;2023-03-20T07:36:47;8.20;99.90
51902;DHT22;37929;53.218;6.548;2023-03-20T07:39:13;8.70;99.90
51902;DHT22;37929;53.218;6.548;2023-03-20T07:41:39;8.30;99.90
51902;DHT22;37929;53.218;6.548;2023-03-20T07:44:04;8.30;99.90
51902;DHT22;37929;53.218;6.548;2023-03-20T07:46:32;8.30;99.90
51902;DHT22;37929;53.218;6.548;2023-03-20T07:48:58;8.30;99.90
51902;DHT22;37929;53.218;6.548;2023-03-20T07:51:24;8.30;99.90
51902;DHT22;37929;53.218;6.548;2023-03-20T07:53:50;8.30;99.90
51902;DHT22;37929;53.218;6.548;2023-03-20T07:56:16;8.40;99.90
51902;DHT22;37929;53.218;6.548;2023-03-20T07:58:42;8.30;99.90
51902;DHT22;37929;53.218;6.548;2023-03-20T08:01:08;8.40;99.90
51902;DHT22;37929;53.218;6.548;2023-03-20T08:03:34;8.40;99.90
51902;DHT22;37929;53.218;6.548;2023-03-20T08:05:59;8.40;99.90
51902;DHT22;37929;53.218;6.548;2023-03-20T08:08:26;8.50;99.90
51902;DHT22;37929;53.218;6.548;2023-03-20T08:10:52;8.50;99.90
51902;DHT22;37929;53.218;6.548;2023-03-20T08:13:18;8.60;99.90
51902;DHT22;37929;53.218;6.548;2023-03-20T08:15:46;8.60;99.90
51902;DHT22;37929;53.218;6.548;2023-03-20T08:18:15;8.60;99.90
51902;DHT22;37929;53.218;6.548;2023-03-20T08:20:40;8.60;99.90
51902;DHT22;37929;53.218;6.548;2023-03-20T08:23:09;8.50;99.90
51902;DHT22;37929;53.218;6.548;2023-03-20T08:25:35;8.70;99.90
51902;DHT22;37929;53.218;6.548;2023-03-20T08:28:00;8.50;99.90
51902;DHT22;37929;53.218;6.548;2023-03-20T08:30:29;8.50;99.90
51902;DHT22;37929;53.218;6.548;2023-03-20T08:32:55;8.50;99.90
51902;DHT22;37929;53.218;6.548;2023-03-20T08:35:22;8.50;99.90
51902;DHT22;37929;53.218;6.548;2023-03-20T08:37:49;8.50;99.90
51902;DHT22;37929;53.218;6.548;2023-03-20T08:40:14;8.60;99.90
51902;DHT22;37929;53.218;6.548;2023-03-20T08:42:44;8.70;99.90
51902;DHT22;37929;53.218;6.548;2023-03-20T08:45:11;8.60;99.90
51902;DHT22;37929;53.218;6.548;2023-03-20T08:47:37;8.70;99.90
51902;DHT22;37929;53.218;6.548;2023-03-20T08:50:04;8.70;99.90
51902;DHT22;37929;53.218;6.548;2023-03-20T08:52:32;8.70;99.90
51902;DHT22;37929;53.218;6.548;2023-03-20T08:54:57;8.70;99.90
51902;DHT22;37929;53.218;6.548;2023-03-20T08:57:26;8.80;99.90
51902;DHT22;37929;53.218;6.548;2023-03-20T08:59:52;8.80;99.90
51902;DHT22;37929;53.218;6.548;2023-03-20T09:02:18;8.90;99.90
51902;DHT22;37929;53.218;6.548;2023-03-20T09:04:43;8.90;99.90
51902;DHT22;37929;53.218;6.548;2023-03-20T09:07:09;9.00;99.90
51902;DHT22;37929;53.218;6.548;2023-03-20T09:09:35;9.10;99.90
51902;DHT22;37929;53.218;6.548;2023-03-20T09:12:01;9.10;99.90
51902;DHT22;37929;53.218;6.548;2023-03-20T09:14:27;9.10;99.90
51902;DHT22;37929;53.218;6.548;2023-03-20T09:16:53;9.20;99.90
51902;DHT22;37929;53.218;6.548;2023-03-20T09:19:19;9.20;99.90
51902;DHT22;37929;53.218;6.548;2023-03-20T09:21:45;9.20;99.90
51902;DHT22;37929;53.218;6.548;2023-03-20T09:24:11;9.30;99.90
51902;DHT22;37929;53.218;6.548;2023-03-20T09:26:39;9.30;99.90
51902;DHT22;37929;53.218;6.548;2023-03-20T09:29:05;9.40;99.90
51902;DHT22;37929;53.218;6.548;2023-03-20T09:31:31;9.50;99.90
51902;DHT22;37929;53.218;6.548;2023-03-20T09:33:56;9.60;99.90
51902;DHT22;37929;53.218;6.548;2023-03-20T09:36:22;9.60;99.90
51902;DHT22;37929;53.218;6.548;2023-03-20T09:38:48;9.60;99.90
51902;DHT22;37929;53.218;6.548;2023-03-20T09:41:20;9.50;99.90
51902;DHT22;37929;53.218;6.548;2023-03-20T09:44:07;9.60;99.90
51902;DHT22;37929;53.218;6.548;2023-03-20T09:46:45;9.60;99.90
51902;DHT22;37929;53.218;6.548;2023-03-20T09:52:25;9.70;99.90
51902;DHT22;37929;53.218;6.548;2023-03-20T09:54:56;9.60;99.90
51902;DHT22;37929;53.218;6.548;2023-03-20T09:57:38;9.60;99.90
51902;DHT22;37929;53.218;6.548;2023-03-20T10:00:18;9.70;99.90
51902;DHT22;37929;53.218;6.548;2023-03-20T10:05:27;9.90;99.90
51902;DHT22;37929;53.218;6.548;2023-03-20T10:07:58;9.90;99.90
51902;DHT22;37929;53.218;6.548;2023-03-20T10:18:29;10.30;99.90
51902;DHT22;37929;53.218;6.548;2023-03-20T10:21:04;10.30;99.90
51902;DHT22;37929;53.218;6.548;2023-03-20T10:23:48;10.10;99.90
51902;DHT22;37929;53.218;6.548;2023-03-20T10:26:19;10.10;99.90
51902;DHT22;37929;53.218;6.548;2023-03-20T10:29:11;10.20;99.90
51902;DHT22;37929;53.218;6.548;2023-03-20T10:40:33;10.20;99.90
51902;DHT22;37929;53.218;6.548;2023-03-20T10:43:20;10.10;99.90
51902;DHT22;37929;53.218;6.548;2023-03-20T10:46:15;10.10;99.90
51902;DHT22;37929;53.218;6.548;2023-03-20T10:49:05;10.10;99.90
51902;DHT22;37929;53.218;6.548;2023-03-20T10:54:26;10.20;99.90
51902;DHT22;37929;53.218;6.548;2023-03-20T10:56:55;10.30;99.90
51902;DHT22;37929;53.218;6.548;2023-03-20T11:01:55;10.40;99.90
51902;DHT22;37929;53.218;6.548;2023-03-20T11:04:21;10.30;99.90
51902;DHT22;37929;53.218;6.548;2023-03-20T11:09:32;10.10;99.90
51902;DHT22;37929;53.218;6.548;2023-03-20T11:12:00;10.10;99.90
51902;DHT22;37929;53.218;6.548;2023-03-20T11:14:33;10.00;99.90
51902;DHT22;37929;53.218;6.548;2023-03-20T11:17:02;9.90;99.90
51902;DHT22;37929;53.218;6.548;2023-03-20T11:19:32;9.90;99.90
51902;DHT22;37929;53.218;6.548;2023-03-20T11:22:01;10.00;99.90
51902;DHT22;37929;53.218;6.548;2023-03-20T11:24:45;10.00;99.90
51902;DHT22;37929;53.218;6.548;2023-03-20T11:27:17;10.00;99.90
51902;DHT22;37929;53.218;6.548;2023-03-20T11:29:47;10.00;99.90
51902;DHT22;37929;53.218;6.548;2023-03-20T11:32:30;9.90;99.90
51902;DHT22;37929;53.218;6.548;2023-03-20T11:35:29;9.80;99.90
51902;DHT22;37929;53.218;6.548;2023-03-20T11:40:39;9.90;99.90
51902;DHT22;37929;53.218;6.548;2023-03-20T11:43:19;9.90;99.90
51902;DHT22;37929;53.218;6.548;2023-03-20T11:45:59;9.90;99.90
51902;DHT22;37929;53.218;6.548;2023-03-20T11:48:36;9.80;99.90
51902;DHT22;37929;53.218;6.548;2023-03-20T11:51:10;9.70;99.90
51902;DHT22;37929;53.218;6.548;2023-03-20T11:54:04;9.70;99.90
51902;DHT22;37929;53.218;6.548;2023-03-20T11:56:33;9.60;99.90
51902;DHT22;37929;53.218;6.548;2023-03-20T12:01:51;9.30;99.90
51902;DHT22;37929;53.218;6.548;2023-03-20T12:04:36;9.70;99.90
51902;DHT22;37929;53.218;6.548;2023-03-20T12:09:57;9.70;99.90
51902;DHT22;37929;53.218;6.548;2023-03-20T12:12:47;9.60;99.90
51902;DHT22;37929;53.218;6.548;2023-03-20T12:15:43;9.40;99.90
51902;DHT22;37929;53.218;6.548;2023-03-20T12:18:24;9.50;99.90
51902;DHT22;37929;53.218;6.548;2023-03-20T12:24:09;9.20;99.90
51902;DHT22;37929;53.218;6.548;2023-03-20T12:29:29;8.90;99.90
51902;DHT22;37929;53.218;6.548;2023-03-20T12:32:19;8.90;99.90
51902;DHT22;37929;53.218;6.548;2023-03-20T12:37:31;8.90;99.90
51902;DHT22;37929;53.218;6.548;2023-03-20T12:40:00;9.70;99.90
51902;DHT22;37929;53.218;6.548;2023-03-20T13:02:18;8.80;99.90
51902;DHT22;37929;53.218;6.548;2023-03-20T13:04:54;8.80;99.90
51902;DHT22;37929;53.218;6.548;2023-03-20T13:07:30;8.70;99.90
51902;DHT22;37929;53.218;6.548;2023-03-20T13:10:05;9.00;99.90
51902;DHT22;37929;53.218;6.548;2023-03-20T13:18:18;8.60;99.90
51902;DHT22;37929;53.218;6.548;2023-03-20T13:20:53;8.60;99.90
51902;DHT22;37929;53.218;6.548;2023-03-20T13:26:33;8.60;99.90
51902;DHT22;37929;53.218;6.548;2023-03-20T13:29:37;8.60;99.90
51902;DHT22;37929;53.218;6.548;2023-03-20T13:37:55;8.50;99.90
51902;DHT22;37929;53.218;6.548;2023-03-20T13:40:39;8.40;99.90
51902;DHT22;37929;53.218;6.548;2023-03-20T13:55:51;8.20;99.90
51902;DHT22;37929;53.218;6.548;2023-03-20T13:58:28;8.30;99.90
51902;DHT22;37929;53.218;6.548;2023-03-20T14:01:15;8.30;99.90
51902;DHT22;37929;53.218;6.548;2023-03-20T14:03:45;8.30;99.90
51902;DHT22;37929;53.218;6.548;2023-03-20T14:08:55;8.30;99.90
51902;DHT22;37929;53.218;6.548;2023-03-20T14:14:22;8.50;99.90
51902;DHT22;37929;53.218;6.548;2023-03-20T14:17:00;8.20;99.90
51902;DHT22;37929;53.218;6.548;2023-03-20T14:19:28;8.20;99.90
51902;DHT22;37929;53.218;6.548;2023-03-20T14:21:55;7.20;99.90
51902;DHT22;37929;53.218;6.548;2023-03-20T14:24:22;8.10;99.90
51902;DHT22;37929;53.218;6.548;2023-03-20T14:26:55;8.10;99.90
51902;DHT22;37929;53.218;6.548;2023-03-20T14:32:11;8.10;99.90
51902;DHT22;37929;53.218;6.548;2023-03-20T14:37:34;8.10;99.90
51902;DHT22;37929;53.218;6.548;2023-03-20T14:40:15;8.10;99.90
51902;DHT22;37929;53.218;6.548;2023-03-20T14:47:59;8.10;99.90
51902;DHT22;37929;53.218;6.548;2023-03-20T14:50:35;8.00;99.90
51902;DHT22;37929;53.218;6.548;2023-03-20T14:53:17;8.10;99.90
51902;DHT22;37929;53.218;6.548;2023-03-20T14:59:04;8.00;99.90
51902;DHT22;37929;53.218;6.548;2023-03-20T15:09:43;8.10;99.90
51902;DHT22;37929;53.218;6.548;2023-03-20T15:12:13;8.10;99.90
51902;DHT22;37929;53.218;6.548;2023-03-20T15:15:06;8.40;99.90
51902;DHT22;37929;53.218;6.548;2023-03-20T15:17:42;8.10;99.90
51902;DHT22;37929;53.218;6.548;2023-03-20T15:20:21;8.10;99.90
51902;DHT22;37929;53.218;6.548;2023-03-20T15:22:59;8.10;99.90
51902;DHT22;37929;53.218;6.548;2023-03-20T15:25:38;8.10;99.90
51902;DHT22;37929;53.218;6.548;2023-03-20T15:28:13;8.20;99.90
51902;DHT22;37929;53.218;6.548;2023-03-20T15:30:39;8.20;99.90
51902;DHT22;37929;53.218;6.548;2023-03-20T15:33:06;8.20;99.90
51902;DHT22;37929;53.218;6.548;2023-03-20T15:35:32;8.20;99.90
51902;DHT22;37929;53.218;6.548;2023-03-20T15:38:04;8.20;99.90
51902;DHT22;37929;53.218;6.548;2023-03-20T15:40:32;8.20;99.90
51902;DHT22;37929;53.218;6.548;2023-03-20T15:43:03;8.30;99.90
51902;DHT22;37929;53.218;6.548;2023-03-20T15:45:32;8.20;99.90
51902;DHT22;37929;53.218;6.548;2023-03-20T15:48:01;8.30;99.90
51902;DHT22;37929;53.218;6.548;2023-03-20T15:50:37;8.30;99.90
51902;DHT22;37929;53.218;6.548;2023-03-20T15:53:08;8.30;99.90
51902;DHT22;37929;53.218;6.548;2023-03-20T15:55:36;8.30;99.90
51902;DHT22;37929;53.218;6.548;2023-03-20T15:58:03;8.30;99.90
51902;DHT22;37929;53.218;6.548;2023-03-20T16:00:31;8.30;99.90
51902;DHT22;37929;53.218;6.548;2023-03-20T16:03:00;8.30;99.90
51902;DHT22;37929;53.218;6.548;2023-03-20T16:05:29;8.30;99.90
51902;DHT22;37929;53.218;6.548;2023-03-20T16:07:56;8.30;99.90
51902;DHT22;37929;53.218;6.548;2023-03-20T16:10:33;8.30;99.90
51902;DHT22;37929;53.218;6.548;2023-03-20T16:13:03;8.30;99.90
51902;DHT22;37929;53.218;6.548;2023-03-20T16:15:32;8.80;99.90
51902;DHT22;37929;53.218;6.548;2023-03-20T16:18:00;8.30;99.90
51902;DHT22;37929;53.218;6.548;2023-03-20T16:20:36;8.80;99.90
51902;DHT22;37929;53.218;6.548;2023-03-20T16:23:06;8.30;99.90
51902;DHT22;37929;53.218;6.548;2023-03-20T16:25:34;8.30;99.90
51902;DHT22;37929;53.218;6.548;2023-03-20T16:28:00;8.30;99.90
51902;DHT22;37929;53.218;6.548;2023-03-20T16:30:32;8.30;99.90
51902;DHT22;37929;53.218;6.548;2023-03-20T16:33:11;8.40;99.90
51902;DHT22;37929;53.218;6.548;2023-03-20T16:35:42;8.80;99.90
51902;DHT22;37929;53.218;6.548;2023-03-20T16:40:55;8.40;99.90
51902;DHT22;37929;53.218;6.548;2023-03-20T16:43:29;8.40;99.90
51902;DHT22;37929;53.218;6.548;2023-03-20T16:45:57;8.90;99.90
51902;DHT22;37929;53.218;6.548;2023-03-20T16:48:35;8.40;99.90
51902;DHT22;37929;53.218;6.548;2023-03-20T16:51:25;8.40;99.90
51902;DHT22;37929;53.218;6.548;2023-03-20T16:53:56;8.60;99.90
51902;DHT22;37929;53.218;6.548;2023-03-20T16:58:57;8.40;99.90
51902;DHT22;37929;53.218;6.548;2023-03-20T17:01:26;8.40;99.90
51902;DHT22;37929;53.218;6.548;2023-03-20T17:04:27;8.90;99.90
51902;DHT22;37929;53.218;6.548;2023-03-20T17:06:57;8.40;99.90
51902;DHT22;37929;53.218;6.548;2023-03-20T17:09:28;8.40;99.90
51902;DHT22;37929;53.218;6.548;2023-03-20T17:12:16;8.50;99.90
51902;DHT22;37929;53.218;6.548;2023-03-20T17:14:43;8.50;99.90
51902;DHT22;37929;53.218;6.548;2023-03-20T17:17:19;8.50;99.90
51902;DHT22;37929;53.218;6.548;2023-03-20T17:19:47;8.50;99.90
51902;DHT22;37929;53.218;6.548;2023-03-20T17:22:23;8.90;99.90
51902;DHT22;37929;53.218;6.548;2023-03-20T17:24:50;8.50;99.90
51902;DHT22;37929;53.218;6.548;2023-03-20T17:27:17;8.60;99.90
51902;DHT22;37929;53.218;6.548;2023-03-20T17:29:45;8.50;99.90
51902;DHT22;37929;53.218;6.548;2023-03-20T17:32:18;8.70;99.90
51902;DHT22;37929;53.218;6.548;2023-03-20T17:34:45;8.50;99.90
51902;DHT22;37929;53.218;6.548;2023-03-20T17:37:13;8.50;99.90
51902;DHT22;37929;53.218;6.548;2023-03-20T17:39:40;8.50;99.90
51902;DHT22;37929;53.218;6.548;2023-03-20T17:42:18;8.50;99.90
51902;DHT22;37929;53.218;6.548;2023-03-20T17:44:45;8.50;99.90
51902;DHT22;37929;53.218;6.548;2023-03-20T17:47:17;8.50;99.90
51902;DHT22;37929;53.218;6.548;2023-03-20T17:49:43;8.70;99.90
51902;DHT22;37929;53.218;6.548;2023-03-20T17:52:16;8.50;99.90
51902;DHT22;37929;53.218;6.548;2023-03-20T17:54:43;8.50;99.90
51902;DHT22;37929;53.218;6.548;2023-03-20T17:57:32;8.60;99.90
51902;DHT22;37929;53.218;6.548;2023-03-20T17:59:59;8.60;99.90
51902;DHT22;37929;53.218;6.548;2023-03-20T18:02:25;8.60;99.90
51902;DHT22;37929;53.218;6.548;2023-03-20T18:04:51;8.50;99.90
51902;DHT22;37929;53.218;6.548;2023-03-20T18:07:18;8.50;99.90
51902;DHT22;37929;53.218;6.548;2023-03-20T18:09:45;8.60;99.90
51902;DHT22;37929;53.218;6.548;2023-03-20T18:12:15;8.60;99.90
51902;DHT22;37929;53.218;6.548;2023-03-20T18:14:43;8.60;99.90
51902;DHT22;37929;53.218;6.548;2023-03-20T18:17:11;8.60;99.90
51902;DHT22;37929;53.218;6.548;2023-03-20T18:19:37;8.60;99.90
51902;DHT22;37929;53.218;6.548;2023-03-20T18:22:03;8.60;99.90
51902;DHT22;37929;53.218;6.548;2023-03-20T18:24:29;8.60;99.90
51902;DHT22;37929;53.218;6.548;2023-03-20T18:26:55;8.60;99.90
51902;DHT22;37929;53.218;6.548;2023-03-20T18:29:21;8.60;99.90
51902;DHT22;37929;53.218;6.548;2023-03-20T18:31:48;8.60;99.90
51902;DHT22;37929;53.218;6.548;2023-03-20T18:34:15;8.60;99.90
51902;DHT22;37929;53.218;6.548;2023-03-20T18:36:41;8.60;99.90
51902;DHT22;37929;53.218;6.548;2023-03-20T18:39:20;8.60;99.90
51902;DHT22;37929;53.218;6.548;2023-03-20T18:41:46;8.60;99.90
51902;DHT22;37929;53.218;6.548;2023-03-20T18:44:12;8.60;99.90
51902;DHT22;37929;53.218;6.548;2023-03-20T18:46:38;8.60;99.90
51902;DHT22;37929;53.218;6.548;2023-03-20T18:49:04;8.60;99.90
51902;DHT22;37929;53.218;6.548;2023-03-20T18:51:30;8.60;99.90
51902;DHT22;37929;53.218;6.548;2023-03-20T18:53:56;8.60;99.90
51902;DHT22;37929;53.218;6.548;2023-03-20T18:56:24;9.30;99.90
51902;DHT22;37929;53.218;6.548;2023-03-20T18:58:50;8.60;99.90
51902;DHT22;37929;53.218;6.548;2023-03-20T19:01:17;8.60;99.90
51902;DHT22;37929;53.218;6.548;2023-03-20T19:03:44;8.60;99.90
51902;DHT22;37929;53.218;6.548;2023-03-20T19:06:21;8.60;99.90